sensor_id;sensor_type;location;lat;lon;timestamp;temperature;humidity
14099;DHT22;7126;48.458;7.930;2024-03-29T00:01:16;7.50;99.90
14099;DHT22;7126;48.458;7.930;2024-03-29T00:03:42;7.50;99.90
14099;DHT22;7126;48.458;7.930;2024-03-29T00:06:08;7.50;99.90
14099;DHT22;7126;48.458;7.930;2024-03-29T00:08:33;7.60;99.90
14099;DHT22;7126;48.458;7.930;2024-03-29T00:10:59;7.60;99.90
14099;DHT22;7126;48.458;7.930;2024-03-29T00:13:24;7.70;99.90
14099;DHT22;7126;48.458;7.930;2024-03-29T00:15:50;7.80;99.90
14099;DHT22;7126;48.458;7.930;2024-03-29T00:18:15;7.90;99.90
14099;DHT22;7126;48.458;7.930;2024-03-29T00:20:41;8.00;99.90
14099;DHT22;7126;48.458;7.930;2024-03-29T00:23:06;8.10;99.90
14099;DHT22;7126;48.458;7.930;2024-03-29T00:25:32;8.10;99.90
14099;DHT22;7126;48.458;7.930;2024-03-29T00:27:57;8.00;99.90
14099;DHT22;7126;48.458;7.930;2024-03-29T00:30:23;8.10;99.90
14099;DHT22;7126;48.458;7.930;2024-03-29T00:32:48;8.10;99.90
14099;DHT22;7126;48.458;7.930;2024-03-29T00:35:14;8.10;99.90
14099;DHT22;7126;48.458;7.930;2024-03-29T00:37:39;8.00;99.90
14099;DHT22;7126;48.458;7.930;2024-03-29T00:40:05;7.90;99.90
14099;DHT22;7126;48.458;7.930;2024-03-29T00:42:31;7.80;99.90
14099;DHT22;7126;48.458;7.930;2024-03-29T00:44:57;7.80;99.90
14099;DHT22;7126;48.458;7.930;2024-03-29T00:47:22;7.80;99.90
14099;DHT22;7126;48.458;7.930;2024-03-29T00:49:48;7.90;99.90
14099;DHT22;7126;48.458;7.930;2024-03-29T00:52:13;7.90;99.90
14099;DHT22;7126;48.458;7.930;2024-03-29T00:54:38;7.90;99.90
14099;DHT22;7126;48.458;7.930;2024-03-29T00:57:04;8.00;99.90
14099;DHT22;7126;48.458;7.930;2024-03-29T00:59:31;8.00;99.90
14099;DHT22;7126;48.458;7.930;2024-03-29T01:01:57;7.90;99.90
14099;DHT22;7126;48.458;7.930;2024-03-29T01:04:22;7.90;99.90
14099;DHT22;7126;48.458;7.930;2024-03-29T01:06:48;7.80;99.90
14099;DHT22;7126;48.458;7.930;2024-03-29T01:09:13;7.80;99.90
14099;DHT22;7126;48.458;7.930;2024-03-29T01:11:39;7.90;99.90
14099;DHT22;7126;48.458;7.930;2024-03-29T01:14:05;8.00;99.90
14099;DHT22;7126;48.458;7.930;2024-03-29T01:16:31;7.90;99.90
14099;DHT22;7126;48.458;7.930;2024-03-29T01:18:59;7.80;99.90
14099;DHT22;7126;48.458;7.930;2024-03-29T01:21:28;7.90;99.90
14099;DHT22;7126;48.458;7.930;2024-03-29T01:23:53;8.00;99.90
14099;DHT22;7126;48.458;7.930;2024-03-29T01:26:19;8.10;99.90
14099;DHT22;7126;48.458;7.930;2024-03-29T01:28:45;8.10;99.90
14099;DHT22;7126;48.458;7.930;2024-03-29T01:31:11;8.10;99.90
14099;DHT22;7126;48.458;7.930;2024-03-29T01:33:37;8.30;99.90
14099;DHT22;7126;48.458;7.930;2024-03-29T01:36:04;8.30;99.90
14099;DHT22;7126;48.458;7.930;2024-03-29T01:38:30;8.20;99.90
14099;DHT22;7126;48.458;7.930;2024-03-29T01:40:56;8.20;99.90
14099;DHT22;7126;48.458;7.930;2024-03-29T01:43:21;8.30;99.90
14099;DHT22;7126;48.458;7.930;2024-03-29T01:45:48;8.40;99.90
14099;DHT22;7126;48.458;7.930;2024-03-29T01:48:15;8.40;99.90
14099;DHT22;7126;48.458;7.930;2024-03-29T01:50:41;8.40;99.90
14099;DHT22;7126;48.458;7.930;2024-03-29T01:53:08;8.30;99.90
14099;DHT22;7126;48.458;7.930;2024-03-29T01:55:37;8.30;99.90
14099;DHT22;7126;48.458;7.930;2024-03-29T01:58:03;8.30;99.90
14099;DHT22;7126;48.458;7.930;2024-03-29T02:00:31;8.30;99.90
14099;DHT22;7126;48.458;7.930;2024-03-29T02:02:57;8.30;99.90
14099;DHT22;7126;48.458;7.930;2024-03-29T02:05:23;8.40;99.90
14099;DHT22;7126;48.458;7.930;2024-03-29T02:07:50;8.50;99.90
14099;DHT22;7126;48.458;7.930;2024-03-29T02:10:16;8.60;99.90
14099;DHT22;7126;48.458;7.930;2024-03-29T02:12:41;8.60;99.90
14099;DHT22;7126;48.458;7.930;2024-03-29T02:15:07;8.60;99.90
14099;DHT22;7126;48.458;7.930;2024-03-29T02:17:33;8.60;99.90
14099;DHT22;7126;48.458;7.930;2024-03-29T02:19:58;8.50;99.90
14099;DHT22;7126;48.458;7.930;2024-03-29T02:22:25;8.60;99.90
14099;DHT22;7126;48.458;7.930;2024-03-29T02:24:51;8.70;99.90
14099;DHT22;7126;48.458;7.930;2024-03-29T02:27:17;8.80;99.90
14099;DHT22;7126;48.458;7.930;2024-03-29T02:29:43;8.90;99.90
14099;DHT22;7126;48.458;7.930;2024-03-29T02:32:08;8.90;99.90
14099;DHT22;7126;48.458;7.930;2024-03-29T02:34:34;8.90;99.90
14099;DHT22;7126;48.458;7.930;2024-03-29T02:37:01;8.80;99.90
14099;DHT22;7126;48.458;7.930;2024-03-29T02:39:27;8.80;99.90
14099;DHT22;7126;48.458;7.930;2024-03-29T02:41:52;8.80;99.90
14099;DHT22;7126;48.458;7.930;2024-03-29T02:44:18;8.80;99.90
14099;DHT22;7126;48.458;7.930;2024-03-29T02:46:43;8.70;99.90
14099;DHT22;7126;48.458;7.930;2024-03-29T02:49:09;8.70;99.90
14099;DHT22;7126;48.458;7.930;2024-03-29T02:51:35;8.70;99.90
14099;DHT22;7126;48.458;7.930;2024-03-29T02:54:01;8.70;99.90
14099;DHT22;7126;48.458;7.930;2024-03-29T02:56:26;8.70;99.90
14099;DHT22;7126;48.458;7.930;2024-03-29T02:58:53;8.80;99.90
14099;DHT22;7126;48.458;7.930;2024-03-29T03:01:18;8.80;99.90
14099;DHT22;7126;48.458;7.930;2024-03-29T03:03:44;8.80;99.90
14099;DHT22;7126;48.458;7.930;2024-03-29T03:06:10;8.80;99.90
14099;DHT22;7126;48.458;7.930;2024-03-29T03:08:35;8.70;99.90
14099;DHT22;7126;48.458;7.930;2024-03-29T03:11:19;8.70;99.90
14099;DHT22;7126;48.458;7.930;2024-03-29T03:13:45;8.70;99.90
14099;DHT22;7126;48.458;7.930;2024-03-29T03:16:10;8.60;99.90
14099;DHT22;7126;48.458;7.930;2024-03-29T03:18:36;8.70;99.90
14099;DHT22;7126;48.458;7.930;2024-03-29T03:21:02;8.80;99.90
14099;DHT22;7126;48.458;7.930;2024-03-29T03:23:28;8.90;99.90
14099;DHT22;7126;48.458;7.930;2024-03-29T03:25:54;9.10;99.90
14099;DHT22;7126;48.458;7.930;2024-03-29T03:28:20;9.20;99.90
14099;DHT22;7126;48.458;7.930;2024-03-29T03:30:47;9.30;99.90
14099;DHT22;7126;48.458;7.930;2024-03-29T03:33:12;9.20;99.90
14099;DHT22;7126;48.458;7.930;2024-03-29T03:35:38;9.10;99.90
14099;DHT22;7126;48.458;7.930;2024-03-29T03:38:04;9.00;99.90
14099;DHT22;7126;48.458;7.930;2024-03-29T03:40:29;8.90;99.90
14099;DHT22;7126;48.458;7.930;2024-03-29T03:42:55;8.90;99.90
14099;DHT22;7126;48.458;7.930;2024-03-29T03:45:20;8.90;99.90
14099;DHT22;7126;48.458;7.930;2024-03-29T03:47:46;8.90;99.90
14099;DHT22;7126;48.458;7.930;2024-03-29T03:50:11;8.90;99.90
14099;DHT22;7126;48.458;7.930;2024-03-29T03:52:37;8.90;99.90
14099;DHT22;7126;48.458;7.930;2024-03-29T03:55:02;8.90;99.90
14099;DHT22;7126;48.458;7.930;2024-03-29T03:57:28;8.90;99.90
14099;DHT22;7126;48.458;7.930;2024-03-29T03:59:54;8.90;99.90
14099;DHT22;7126;48.458;7.930;2024-03-29T04:02:19;8.90;99.90
14099;DHT22;7126;48.458;7.930;2024-03-29T04:04:48;9.00;99.90
14099;DHT22;7126;48.458;7.930;2024-03-29T04:07:14;9.00;99.90
14099;DHT22;7126;48.458;7.930;2024-03-29T04:09:39;9.00;99.90
14099;DHT22;7126;48.458;7.930;2024-03-29T04:12:05;8.90;99.90
14099;DHT22;7126;48.458;7.930;2024-03-29T04:14:30;9.00;99.90
14099;DHT22;7126;48.458;7.930;2024-03-29T04:16:56;9.10;99.90
14099;DHT22;7126;48.458;7.930;2024-03-29T04:19:21;9.10;99.90
14099;DHT22;7126;48.458;7.930;2024-03-29T04:21:47;9.20;99.90
14099;DHT22;7126;48.458;7.930;2024-03-29T04:24:12;9.20;99.90
14099;DHT22;7126;48.458;7.930;2024-03-29T04:26:39;9.30;99.90
14099;DHT22;7126;48.458;7.930;2024-03-29T04:29:04;9.30;99.90
14099;DHT22;7126;48.458;7.930;2024-03-29T04:31:30;9.30;99.90
14099;DHT22;7126;48.458;7.930;2024-03-29T04:33:56;9.30;99.90
14099;DHT22;7126;48.458;7.930;2024-03-29T04:36:21;9.30;99.90
14099;DHT22;7126;48.458;7.930;2024-03-29T04:38:47;9.20;99.90
14099;DHT22;7126;48.458;7.930;2024-03-29T04:41:13;9.30;99.90
14099;DHT22;7126;48.458;7.930;2024-03-29T04:43:40;9.20;99.90
14099;DHT22;7126;48.458;7.930;2024-03-29T04:46:13;9.10;99.90
14099;DHT22;7126;48.458;7.930;2024-03-29T04:48:40;9.20;99.90
14099;DHT22;7126;48.458;7.930;2024-03-29T04:51:11;9.20;99.90
14099;DHT22;7126;48.458;7.930;2024-03-29T04:53:37;9.20;99.90
14099;DHT22;7126;48.458;7.930;2024-03-29T04:56:04;9.20;99.90
14099;DHT22;7126;48.458;7.930;2024-03-29T04:58:30;9.20;99.90
14099;DHT22;7126;48.458;7.930;2024-03-29T05:00:56;9.20;99.90
14099;DHT22;7126;48.458;7.930;2024-03-29T05:03:22;9.20;99.90
14099;DHT22;7126;48.458;7.930;2024-03-29T05:05:51;9.30;99.90
14099;DHT22;7126;48.458;7.930;2024-03-29T05:08:17;9.30;99.90
14099;DHT22;7126;48.458;7.930;2024-03-29T05:10:44;9.30;99.90
14099;DHT22;7126;48.458;7.930;2024-03-29T05:13:09;9.40;99.90
14099;DHT22;7126;48.458;7.930;2024-03-29T05:15:35;9.40;99.90
14099;DHT22;7126;48.458;7.930;2024-03-29T05:18:00;9.50;99.90
14099;DHT22;7126;48.458;7.930;2024-03-29T05:20:26;9.50;99.90
14099;DHT22;7126;48.458;7.930;2024-03-29T05:22:51;9.40;99.90
14099;DHT22;7126;48.458;7.930;2024-03-29T05:25:17;9.40;99.90
14099;DHT22;7126;48.458;7.930;2024-03-29T05:27:42;9.50;99.90
14099;DHT22;7126;48.458;7.930;2024-03-29T05:30:08;9.50;99.90
14099;DHT22;7126;48.458;7.930;2024-03-29T05:32:35;9.50;99.90
14099;DHT22;7126;48.458;7.930;2024-03-29T05:35:01;9.60;99.90
14099;DHT22;7126;48.458;7.930;2024-03-29T05:37:26;9.60;99.90
14099;DHT22;7126;48.458;7.930;2024-03-29T05:39:52;9.60;99.90
14099;DHT22;7126;48.458;7.930;2024-03-29T05:42:31;9.60;99.90
14099;DHT22;7126;48.458;7.930;2024-03-29T05:44:57;9.60;99.90
14099;DHT22;7126;48.458;7.930;2024-03-29T05:47:23;9.60;99.90
14099;DHT22;7126;48.458;7.930;2024-03-29T05:49:49;9.60;99.90
14099;DHT22;7126;48.458;7.930;2024-03-29T05:52:15;9.70;99.90
14099;DHT22;7126;48.458;7.930;2024-03-29T05:54:42;9.80;99.90
14099;DHT22;7126;48.458;7.930;2024-03-29T05:57:07;9.80;99.90
14099;DHT22;7126;48.458;7.930;2024-03-29T05:59:34;9.80;99.90
14099;DHT22;7126;48.458;7.930;2024-03-29T06:01:59;9.80;99.90
14099;DHT22;7126;48.458;7.930;2024-03-29T06:04:25;9.80;99.90
14099;DHT22;7126;48.458;7.930;2024-03-29T06:07:04;9.80;99.90
14099;DHT22;7126;48.458;7.930;2024-03-29T06:09:30;9.80;99.90
14099;DHT22;7126;48.458;7.930;2024-03-29T06:11:56;9.80;99.90
14099;DHT22;7126;48.458;7.930;2024-03-29T06:14:25;9.80;99.90
14099;DHT22;7126;48.458;7.930;2024-03-29T06:17:09;9.90;99.90
14099;DHT22;7126;48.458;7.930;2024-03-29T06:19:54;9.90;99.90
14099;DHT22;7126;48.458;7.930;2024-03-29T06:22:25;10.00;99.90
14099;DHT22;7126;48.458;7.930;2024-03-29T06:24:53;9.90;99.90
14099;DHT22;7126;48.458;7.930;2024-03-29T06:27:19;9.90;99.90
14099;DHT22;7126;48.458;7.930;2024-03-29T06:29:46;9.90;99.90
14099;DHT22;7126;48.458;7.930;2024-03-29T06:32:12;9.90;99.90
14099;DHT22;7126;48.458;7.930;2024-03-29T06:34:38;9.90;99.90
14099;DHT22;7126;48.458;7.930;2024-03-29T06:37:03;9.90;99.90
14099;DHT22;7126;48.458;7.930;2024-03-29T06:39:29;9.90;99.90
14099;DHT22;7126;48.458;7.930;2024-03-29T06:41:54;9.90;99.90
14099;DHT22;7126;48.458;7.930;2024-03-29T06:44:20;9.90;99.90
14099;DHT22;7126;48.458;7.930;2024-03-29T06:46:46;9.80;99.90
14099;DHT22;7126;48.458;7.930;2024-03-29T06:49:12;9.80;99.90
14099;DHT22;7126;48.458;7.930;2024-03-29T06:51:39;9.70;99.90
14099;DHT22;7126;48.458;7.930;2024-03-29T06:54:06;9.70;99.90
14099;DHT22;7126;48.458;7.930;2024-03-29T06:56:32;9.60;99.90
14099;DHT22;7126;48.458;7.930;2024-03-29T06:58:58;9.60;99.90
14099;DHT22;7126;48.458;7.930;2024-03-29T07:01:24;9.50;99.90
14099;DHT22;7126;48.458;7.930;2024-03-29T07:03:49;9.50;99.90
14099;DHT22;7126;48.458;7.930;2024-03-29T07:06:15;9.50;99.90
14099;DHT22;7126;48.458;7.930;2024-03-29T07:08:40;9.30;99.90
14099;DHT22;7126;48.458;7.930;2024-03-29T07:11:06;9.30;99.90
14099;DHT22;7126;48.458;7.930;2024-03-29T07:13:31;9.30;99.90
14099;DHT22;7126;48.458;7.930;2024-03-29T07:16:01;9.30;99.90
14099;DHT22;7126;48.458;7.930;2024-03-29T07:18:27;9.20;99.90
14099;DHT22;7126;48.458;7.930;2024-03-29T07:20:53;9.20;99.90
14099;DHT22;7126;48.458;7.930;2024-03-29T07:23:19;9.20;99.90
14099;DHT22;7126;48.458;7.930;2024-03-29T07:25:56;9.10;99.90
14099;DHT22;7126;48.458;7.930;2024-03-29T07:28:21;9.00;99.90
14099;DHT22;7126;48.458;7.930;2024-03-29T07:30:50;9.00;99.90
14099;DHT22;7126;48.458;7.930;2024-03-29T07:33:16;9.00;99.90
14099;DHT22;7126;48.458;7.930;2024-03-29T07:35:42;9.00;99.90
14099;DHT22;7126;48.458;7.930;2024-03-29T07:38:08;9.10;99.90
14099;DHT22;7126;48.458;7.930;2024-03-29T07:40:33;9.00;99.90
14099;DHT22;7126;48.458;7.930;2024-03-29T07:43:00;9.00;99.90
14099;DHT22;7126;48.458;7.930;2024-03-29T07:45:26;8.90;99.90
14099;DHT22;7126;48.458;7.930;2024-03-29T07:47:51;8.90;99.90
14099;DHT22;7126;48.458;7.930;2024-03-29T07:50:21;8.80;99.90
14099;DHT22;7126;48.458;7.930;2024-03-29T07:52:46;8.90;99.90
14099;DHT22;7126;48.458;7.930;2024-03-29T07:55:12;8.80;99.90
14099;DHT22;7126;48.458;7.930;2024-03-29T07:57:38;8.80;99.90
14099;DHT22;7126;48.458;7.930;2024-03-29T08:00:04;8.80;99.90
14099;DHT22;7126;48.458;7.930;2024-03-29T08:02:32;8.80;99.90
14099;DHT22;7126;48.458;7.930;2024-03-29T08:04:57;8.80;99.90
14099;DHT22;7126;48.458;7.930;2024-03-29T08:07:23;8.80;99.90
14099;DHT22;7126;48.458;7.930;2024-03-29T08:09:49;8.80;99.90
14099;DHT22;7126;48.458;7.930;2024-03-29T08:12:16;8.80;99.90
14099;DHT22;7126;48.458;7.930;2024-03-29T08:14:41;8.80;99.90
14099;DHT22;7126;48.458;7.930;2024-03-29T08:17:07;8.90;99.90
14099;DHT22;7126;48.458;7.930;2024-03-29T08:19:35;8.90;99.90
14099;DHT22;7126;48.458;7.930;2024-03-29T08:22:00;8.90;99.90
14099;DHT22;7126;48.458;7.930;2024-03-29T08:24:27;8.90;99.90
14099;DHT22;7126;48.458;7.930;2024-03-29T08:26:53;8.90;99.90
14099;DHT22;7126;48.458;7.930;2024-03-29T08:29:18;8.90;99.90
14099;DHT22;7126;48.458;7.930;2024-03-29T08:31:44;9.00;99.90
14099;DHT22;7126;48.458;7.930;2024-03-29T08:34:09;9.00;99.90
14099;DHT22;7126;48.458;7.930;2024-03-29T08:36:38;9.00;99.90
14099;DHT22;7126;48.458;7.930;2024-03-29T08:39:04;9.10;99.90
14099;DHT22;7126;48.458;7.930;2024-03-29T08:41:29;9.10;99.90
14099;DHT22;7126;48.458;7.930;2024-03-29T08:43:55;9.10;99.90
14099;DHT22;7126;48.458;7.930;2024-03-29T08:46:20;9.20;99.90
14099;DHT22;7126;48.458;7.930;2024-03-29T08:48:46;9.20;99.90
14099;DHT22;7126;48.458;7.930;2024-03-29T08:51:11;9.20;99.90
14099;DHT22;7126;48.458;7.930;2024-03-29T08:53:37;9.30;99.90
14099;DHT22;7126;48.458;7.930;2024-03-29T08:56:02;9.30;99.90
14099;DHT22;7126;48.458;7.930;2024-03-29T08:58:28;9.30;99.90
14099;DHT22;7126;48.458;7.930;2024-03-29T09:00:55;9.40;99.90
14099;DHT22;7126;48.458;7.930;2024-03-29T09:03:24;9.30;99.90
14099;DHT22;7126;48.458;7.930;2024-03-29T09:05:50;9.40;99.90
14099;DHT22;7126;48.458;7.930;2024-03-29T09:08:20;9.40;99.90
14099;DHT22;7126;48.458;7.930;2024-03-29T09:10:45;9.40;99.90
14099;DHT22;7126;48.458;7.930;2024-03-29T09:13:11;9.50;99.90
14099;DHT22;7126;48.458;7.930;2024-03-29T09:15:37;9.60;99.90
14099;DHT22;7126;48.458;7.930;2024-03-29T09:18:03;9.60;99.90
14099;DHT22;7126;48.458;7.930;2024-03-29T09:20:36;9.70;99.90
14099;DHT22;7126;48.458;7.930;2024-03-29T09:23:02;9.70;99.90
14099;DHT22;7126;48.458;7.930;2024-03-29T09:25:27;9.80;99.90
14099;DHT22;7126;48.458;7.930;2024-03-29T09:27:53;9.70;99.90
14099;DHT22;7126;48.458;7.930;2024-03-29T09:30:18;9.80;99.90
14099;DHT22;7126;48.458;7.930;2024-03-29T09:32:45;9.90;99.90
14099;DHT22;7126;48.458;7.930;2024-03-29T09:35:11;9.90;99.90
14099;DHT22;7126;48.458;7.930;2024-03-29T09:37:36;10.00;99.90
14099;DHT22;7126;48.458;7.930;2024-03-29T09:40:03;10.10;99.90
14099;DHT22;7126;48.458;7.930;2024-03-29T09:42:32;10.30;99.90
14099;DHT22;7126;48.458;7.930;2024-03-29T09:44:59;10.30;99.90
14099;DHT22;7126;48.458;7.930;2024-03-29T09:47:25;10.40;99.90
14099;DHT22;7126;48.458;7.930;2024-03-29T09:49:53;10.50;99.90
14099;DHT22;7126;48.458;7.930;2024-03-29T09:52:20;10.50;99.90
14099;DHT22;7126;48.458;7.930;2024-03-29T09:54:45;10.50;99.90
14099;DHT22;7126;48.458;7.930;2024-03-29T09:57:12;10.50;99.90
14099;DHT22;7126;48.458;7.930;2024-03-29T09:59:38;10.60;99.90
14099;DHT22;7126;48.458;7.930;2024-03-29T10:02:18;10.70;99.90
14099;DHT22;7126;48.458;7.930;2024-03-29T10:04:46;10.90;99.90
14099;DHT22;7126;48.458;7.930;2024-03-29T10:07:14;11.10;99.90
14099;DHT22;7126;48.458;7.930;2024-03-29T10:09:41;11.30;99.90
14099;DHT22;7126;48.458;7.930;2024-03-29T10:12:08;11.40;99.90
14099;DHT22;7126;48.458;7.930;2024-03-29T10:14:46;11.70;99.90
14099;DHT22;7126;48.458;7.930;2024-03-29T10:17:16;12.00;99.90
14099;DHT22;7126;48.458;7.930;2024-03-29T10:19:42;12.20;99.90
14099;DHT22;7126;48.458;7.930;2024-03-29T10:22:08;12.50;99.90
14099;DHT22;7126;48.458;7.930;2024-03-29T10:24:34;12.70;99.90
14099;DHT22;7126;48.458;7.930;2024-03-29T10:26:59;12.80;99.90
14099;DHT22;7126;48.458;7.930;2024-03-29T10:29:31;12.90;99.90
14099;DHT22;7126;48.458;7.930;2024-03-29T10:31:57;13.20;99.90
14099;DHT22;7126;48.458;7.930;2024-03-29T10:34:24;13.30;99.90
14099;DHT22;7126;48.458;7.930;2024-03-29T10:36:50;13.60;99.90
14099;DHT22;7126;48.458;7.930;2024-03-29T10:39:16;13.70;99.90
14099;DHT22;7126;48.458;7.930;2024-03-29T10:41:45;13.80;99.90
14099;DHT22;7126;48.458;7.930;2024-03-29T10:44:12;14.00;99.90
14099;DHT22;7126;48.458;7.930;2024-03-29T10:46:39;14.10;99.90
14099;DHT22;7126;48.458;7.930;2024-03-29T10:49:07;14.10;99.90
14099;DHT22;7126;48.458;7.930;2024-03-29T10:51:39;14.20;99.90
14099;DHT22;7126;48.458;7.930;2024-03-29T10:54:08;14.20;99.90
14099;DHT22;7126;48.458;7.930;2024-03-29T10:56:35;14.30;99.90
14099;DHT22;7126;48.458;7.930;2024-03-29T10:59:17;14.20;99.90
14099;DHT22;7126;48.458;7.930;2024-03-29T11:01:52;14.20;99.90
14099;DHT22;7126;48.458;7.930;2024-03-29T11:04:33;14.20;99.90
14099;DHT22;7126;48.458;7.930;2024-03-29T11:07:06;14.30;99.90
14099;DHT22;7126;48.458;7.930;2024-03-29T11:09:33;14.30;99.90
14099;DHT22;7126;48.458;7.930;2024-03-29T11:12:01;14.30;99.90
14099;DHT22;7126;48.458;7.930;2024-03-29T11:14:42;14.30;99.90
14099;DHT22;7126;48.458;7.930;2024-03-29T11:17:11;14.40;99.90
14099;DHT22;7126;48.458;7.930;2024-03-29T11:19:38;14.40;99.90
14099;DHT22;7126;48.458;7.930;2024-03-29T11:22:04;14.50;99.90
14099;DHT22;7126;48.458;7.930;2024-03-29T11:24:31;14.50;99.90
14099;DHT22;7126;48.458;7.930;2024-03-29T11:26:57;14.60;99.90
14099;DHT22;7126;48.458;7.930;2024-03-29T11:29:23;14.60;99.90
14099;DHT22;7126;48.458;7.930;2024-03-29T11:31:58;14.70;99.90
14099;DHT22;7126;48.458;7.930;2024-03-29T11:34:24;14.70;99.90
14099;DHT22;7126;48.458;7.930;2024-03-29T11:36:50;14.70;99.90
14099;DHT22;7126;48.458;7.930;2024-03-29T11:39:23;14.60;99.90
14099;DHT22;7126;48.458;7.930;2024-03-29T11:41:49;14.60;99.90
14099;DHT22;7126;48.458;7.930;2024-03-29T11:44:15;14.60;99.90
14099;DHT22;7126;48.458;7.930;2024-03-29T11:46:41;14.60;99.90
14099;DHT22;7126;48.458;7.930;2024-03-29T11:49:07;14.50;99.90
14099;DHT22;7126;48.458;7.930;2024-03-29T11:51:33;14.40;99.90
14099;DHT22;7126;48.458;7.930;2024-03-29T11:54:00;14.40;99.90
14099;DHT22;7126;48.458;7.930;2024-03-29T11:56:25;14.40;99.90
14099;DHT22;7126;48.458;7.930;2024-03-29T11:58:51;14.30;99.90
14099;DHT22;7126;48.458;7.930;2024-03-29T12:01:18;14.30;99.90
14099;DHT22;7126;48.458;7.930;2024-03-29T12:03:44;14.20;99.90
14099;DHT22;7126;48.458;7.930;2024-03-29T12:06:10;14.20;99.90
14099;DHT22;7126;48.458;7.930;2024-03-29T12:08:38;14.10;99.90
14099;DHT22;7126;48.458;7.930;2024-03-29T12:11:04;14.10;99.90
14099;DHT22;7126;48.458;7.930;2024-03-29T12:13:30;14.10;99.90
14099;DHT22;7126;48.458;7.930;2024-03-29T12:15:57;14.10;99.90
14099;DHT22;7126;48.458;7.930;2024-03-29T12:18:23;14.10;99.90
14099;DHT22;7126;48.458;7.930;2024-03-29T12:20:50;14.10;99.90
14099;DHT22;7126;48.458;7.930;2024-03-29T12:23:17;14.10;99.90
14099;DHT22;7126;48.458;7.930;2024-03-29T12:25:43;14.10;99.90
14099;DHT22;7126;48.458;7.930;2024-03-29T12:28:10;14.20;99.90
14099;DHT22;7126;48.458;7.930;2024-03-29T12:30:37;14.20;99.90
14099;DHT22;7126;48.458;7.930;2024-03-29T12:33:08;14.20;99.90
14099;DHT22;7126;48.458;7.930;2024-03-29T12:35:37;14.30;99.90
14099;DHT22;7126;48.458;7.930;2024-03-29T12:38:04;14.30;99.90
14099;DHT22;7126;48.458;7.930;2024-03-29T12:40:32;14.30;99.90
14099;DHT22;7126;48.458;7.930;2024-03-29T12:43:06;14.40;99.90
14099;DHT22;7126;48.458;7.930;2024-03-29T12:45:34;14.40;99.90
14099;DHT22;7126;48.458;7.930;2024-03-29T12:48:02;14.50;99.90
14099;DHT22;7126;48.458;7.930;2024-03-29T12:50:32;14.50;99.90
14099;DHT22;7126;48.458;7.930;2024-03-29T12:53:00;14.70;99.90
14099;DHT22;7126;48.458;7.930;2024-03-29T12:55:27;14.70;99.90
14099;DHT22;7126;48.458;7.930;2024-03-29T12:57:56;14.80;99.90
14099;DHT22;7126;48.458;7.930;2024-03-29T13:00:21;14.90;99.90
14099;DHT22;7126;48.458;7.930;2024-03-29T13:02:47;15.00;99.90
14099;DHT22;7126;48.458;7.930;2024-03-29T13:05:13;15.00;99.90
14099;DHT22;7126;48.458;7.930;2024-03-29T13:07:39;15.10;99.90
14099;DHT22;7126;48.458;7.930;2024-03-29T13:10:04;15.10;99.90
14099;DHT22;7126;48.458;7.930;2024-03-29T13:12:41;15.10;99.90
14099;DHT22;7126;48.458;7.930;2024-03-29T13:15:19;15.10;99.90
14099;DHT22;7126;48.458;7.930;2024-03-29T13:17:47;15.20;99.90
14099;DHT22;7126;48.458;7.930;2024-03-29T13:20:14;15.20;99.90
14099;DHT22;7126;48.458;7.930;2024-03-29T13:22:44;15.10;99.90
14099;DHT22;7126;48.458;7.930;2024-03-29T13:25:11;15.10;99.90
14099;DHT22;7126;48.458;7.930;2024-03-29T13:27:38;15.10;99.90
14099;DHT22;7126;48.458;7.930;2024-03-29T13:30:09;15.10;99.90
14099;DHT22;7126;48.458;7.930;2024-03-29T13:32:36;15.10;99.90
14099;DHT22;7126;48.458;7.930;2024-03-29T13:35:02;15.10;99.90
14099;DHT22;7126;48.458;7.930;2024-03-29T13:37:33;15.10;99.90
14099;DHT22;7126;48.458;7.930;2024-03-29T13:39:58;15.10;99.90
14099;DHT22;7126;48.458;7.930;2024-03-29T13:42:24;15.10;99.90
14099;DHT22;7126;48.458;7.930;2024-03-29T13:44:50;15.20;99.90
14099;DHT22;7126;48.458;7.930;2024-03-29T13:47:17;15.30;99.90
14099;DHT22;7126;48.458;7.930;2024-03-29T13:49:43;15.30;99.90
14099;DHT22;7126;48.458;7.930;2024-03-29T13:52:09;15.50;99.90
14099;DHT22;7126;48.458;7.930;2024-03-29T13:54:34;15.70;99.90
14099;DHT22;7126;48.458;7.930;2024-03-29T13:57:01;15.90;99.90
14099;DHT22;7126;48.458;7.930;2024-03-29T13:59:29;16.00;99.90
14099;DHT22;7126;48.458;7.930;2024-03-29T14:01:54;16.10;99.90
14099;DHT22;7126;48.458;7.930;2024-03-29T14:04:20;16.20;99.90
14099;DHT22;7126;48.458;7.930;2024-03-29T14:06:45;16.30;99.90
14099;DHT22;7126;48.458;7.930;2024-03-29T14:09:11;16.40;99.90
14099;DHT22;7126;48.458;7.930;2024-03-29T14:11:37;16.50;99.90
14099;DHT22;7126;48.458;7.930;2024-03-29T14:14:03;16.60;99.90
14099;DHT22;7126;48.458;7.930;2024-03-29T14:16:29;16.60;99.90
14099;DHT22;7126;48.458;7.930;2024-03-29T14:18:54;16.70;99.90
14099;DHT22;7126;48.458;7.930;2024-03-29T14:21:20;16.70;99.90
14099;DHT22;7126;48.458;7.930;2024-03-29T14:23:45;16.70;99.90
14099;DHT22;7126;48.458;7.930;2024-03-29T14:26:11;16.70;99.90
14099;DHT22;7126;48.458;7.930;2024-03-29T14:28:36;16.70;99.90
14099;DHT22;7126;48.458;7.930;2024-03-29T14:31:02;16.60;99.90
14099;DHT22;7126;48.458;7.930;2024-03-29T14:33:27;16.60;99.90
14099;DHT22;7126;48.458;7.930;2024-03-29T14:35:53;16.60;99.90
14099;DHT22;7126;48.458;7.930;2024-03-29T14:38:19;16.60;99.90
14099;DHT22;7126;48.458;7.930;2024-03-29T14:40:46;16.60;99.90
14099;DHT22;7126;48.458;7.930;2024-03-29T14:43:11;16.50;99.90
14099;DHT22;7126;48.458;7.930;2024-03-29T14:45:40;16.50;99.90
14099;DHT22;7126;48.458;7.930;2024-03-29T14:48:05;16.50;99.90
14099;DHT22;7126;48.458;7.930;2024-03-29T14:50:31;16.50;99.90
14099;DHT22;7126;48.458;7.930;2024-03-29T14:52:56;16.50;99.90
14099;DHT22;7126;48.458;7.930;2024-03-29T14:55:22;16.50;99.90
14099;DHT22;7126;48.458;7.930;2024-03-29T14:57:48;16.50;99.90
14099;DHT22;7126;48.458;7.930;2024-03-29T15:00:15;16.50;99.90
14099;DHT22;7126;48.458;7.930;2024-03-29T15:02:41;16.40;99.90
14099;DHT22;7126;48.458;7.930;2024-03-29T15:05:08;16.40;99.90
14099;DHT22;7126;48.458;7.930;2024-03-29T15:07:36;16.40;99.90
14099;DHT22;7126;48.458;7.930;2024-03-29T15:10:02;16.40;99.90
14099;DHT22;7126;48.458;7.930;2024-03-29T15:12:30;16.40;99.90
14099;DHT22;7126;48.458;7.930;2024-03-29T15:14:56;16.40;99.90
14099;DHT22;7126;48.458;7.930;2024-03-29T15:17:21;16.30;99.90
14099;DHT22;7126;48.458;7.930;2024-03-29T15:19:47;16.40;99.90
14099;DHT22;7126;48.458;7.930;2024-03-29T15:22:16;16.40;99.90
14099;DHT22;7126;48.458;7.930;2024-03-29T15:24:41;16.30;99.90
14099;DHT22;7126;48.458;7.930;2024-03-29T15:27:07;16.30;99.90
14099;DHT22;7126;48.458;7.930;2024-03-29T15:29:41;16.20;99.90
14099;DHT22;7126;48.458;7.930;2024-03-29T15:32:07;16.20;99.90
14099;DHT22;7126;48.458;7.930;2024-03-29T15:34:34;16.10;99.90
14099;DHT22;7126;48.458;7.930;2024-03-29T15:36:59;16.00;99.90
14099;DHT22;7126;48.458;7.930;2024-03-29T15:39:25;16.00;99.90
14099;DHT22;7126;48.458;7.930;2024-03-29T15:41:50;15.90;99.90
14099;DHT22;7126;48.458;7.930;2024-03-29T15:44:16;15.80;99.90
14099;DHT22;7126;48.458;7.930;2024-03-29T15:46:41;15.80;99.90
14099;DHT22;7126;48.458;7.930;2024-03-29T15:49:09;15.80;99.90
14099;DHT22;7126;48.458;7.930;2024-03-29T15:51:35;15.70;99.90